sensor_id;sensor_type;location;lat;lon;timestamp;temperature;humidity
7378;DHT22;3730;50.856;12.776;2023-03-13T00:01:56;7.70;99.90
7378;DHT22;3730;50.856;12.776;2023-03-13T00:04:21;8.10;99.90
7378;DHT22;3730;50.856;12.776;2023-03-13T00:06:47;8.00;1.00
7378;DHT22;3730;50.856;12.776;2023-03-13T00:09:14;7.20;99.90
7378;DHT22;3730;50.856;12.776;2023-03-13T00:11:41;7.50;99.90
7378;DHT22;3730;50.856;12.776;2023-03-13T00:14:07;9.70;99.90
7378;DHT22;3730;50.856;12.776;2023-03-13T00:16:33;7.30;99.90
7378;DHT22;3730;50.856;12.776;2023-03-13T00:19:00;8.30;99.90
7378;DHT22;3730;50.856;12.776;2023-03-13T00:21:27;7.30;84.30
7378;DHT22;3730;50.856;12.776;2023-03-13T00:23:54;7.30;38.60
7378;DHT22;3730;50.856;12.776;2023-03-13T00:26:22;7.70;99.90
7378;DHT22;3730;50.856;12.776;2023-03-13T00:28:48;7.80;99.90
7378;DHT22;3730;50.856;12.776;2023-03-13T00:31:20;7.30;1.00
7378;DHT22;3730;50.856;12.776;2023-03-13T00:33:48;7.30;1.00
7378;DHT22;3730;50.856;12.776;2023-03-13T00:36:23;7.50;1.00
7378;DHT22;3730;50.856;12.776;2023-03-13T00:38:50;7.30;1.00
7378;DHT22;3730;50.856;12.776;2023-03-13T00:41:18;8.30;1.00
7378;DHT22;3730;50.856;12.776;2023-03-13T00:43:45;8.20;1.00
7378;DHT22;3730;50.856;12.776;2023-03-13T00:46:12;7.30;99.90
7378;DHT22;3730;50.856;12.776;2023-03-13T00:48:38;8.40;1.00
7378;DHT22;3730;50.856;12.776;2023-03-13T00:51:05;7.30;1.00
7378;DHT22;3730;50.856;12.776;2023-03-13T00:53:31;7.60;1.00
7378;DHT22;3730;50.856;12.776;2023-03-13T00:55:59;8.30;1.00
7378;DHT22;3730;50.856;12.776;2023-03-13T00:58:26;7.30;99.90
7378;DHT22;3730;50.856;12.776;2023-03-13T01:00:53;8.80;99.90
7378;DHT22;3730;50.856;12.776;2023-03-13T01:03:19;7.80;49.40
7378;DHT22;3730;50.856;12.776;2023-03-13T01:05:54;7.70;60.70
7378;DHT22;3730;50.856;12.776;2023-03-13T01:08:20;9.60;1.00
7378;DHT22;3730;50.856;12.776;2023-03-13T01:10:45;7.30;99.90
7378;DHT22;3730;50.856;12.776;2023-03-13T01:13:11;7.30;99.90
7378;DHT22;3730;50.856;12.776;2023-03-13T01:15:37;7.30;99.90
7378;DHT22;3730;50.856;12.776;2023-03-13T01:18:02;7.90;99.90
7378;DHT22;3730;50.856;12.776;2023-03-13T01:20:29;7.30;99.90
7378;DHT22;3730;50.856;12.776;2023-03-13T01:22:55;9.60;99.90
7378;DHT22;3730;50.856;12.776;2023-03-13T01:25:20;9.10;99.90
7378;DHT22;3730;50.856;12.776;2023-03-13T01:27:46;7.30;99.90
7378;DHT22;3730;50.856;12.776;2023-03-13T01:30:12;7.30;99.90
7378;DHT22;3730;50.856;12.776;2023-03-13T01:32:37;7.30;99.90
7378;DHT22;3730;50.856;12.776;2023-03-13T01:35:04;7.30;99.90
7378;DHT22;3730;50.856;12.776;2023-03-13T01:37:29;7.70;99.90
7378;DHT22;3730;50.856;12.776;2023-03-13T01:39:55;7.30;99.90
7378;DHT22;3730;50.856;12.776;2023-03-13T01:42:20;7.30;99.90
7378;DHT22;3730;50.856;12.776;2023-03-13T01:44:55;9.50;99.90
7378;DHT22;3730;50.856;12.776;2023-03-13T01:47:21;7.40;99.90
7378;DHT22;3730;50.856;12.776;2023-03-13T01:49:48;7.90;99.90
7378;DHT22;3730;50.856;12.776;2023-03-13T01:52:19;9.70;99.90
7378;DHT22;3730;50.856;12.776;2023-03-13T01:55:06;10.00;99.90
7378;DHT22;3730;50.856;12.776;2023-03-13T01:57:36;7.40;99.90
7378;DHT22;3730;50.856;12.776;2023-03-13T02:00:31;8.00;99.90
7378;DHT22;3730;50.856;12.776;2023-03-13T02:03:01;7.40;99.90
7378;DHT22;3730;50.856;12.776;2023-03-13T02:05:30;7.50;99.90
7378;DHT22;3730;50.856;12.776;2023-03-13T02:08:09;9.60;99.90
7378;DHT22;3730;50.856;12.776;2023-03-13T02:10:41;7.40;99.90
7378;DHT22;3730;50.856;12.776;2023-03-13T02:13:09;7.40;99.90
7378;DHT22;3730;50.856;12.776;2023-03-13T02:15:40;7.40;99.90
7378;DHT22;3730;50.856;12.776;2023-03-13T02:18:06;8.20;99.90
7378;DHT22;3730;50.856;12.776;2023-03-13T02:20:31;7.40;99.90
7378;DHT22;3730;50.856;12.776;2023-03-13T02:25:51;7.40;99.90
7378;DHT22;3730;50.856;12.776;2023-03-13T02:28:26;7.40;99.90
7378;DHT22;3730;50.856;12.776;2023-03-13T02:30:54;7.30;99.90
7378;DHT22;3730;50.856;12.776;2023-03-13T02:33:22;7.30;99.90
7378;DHT22;3730;50.856;12.776;2023-03-13T02:35:50;7.30;99.90
7378;DHT22;3730;50.856;12.776;2023-03-13T02:38:21;7.40;99.90
7378;DHT22;3730;50.856;12.776;2023-03-13T02:40:49;8.50;99.90
7378;DHT22;3730;50.856;12.776;2023-03-13T02:43:29;8.30;99.90
7378;DHT22;3730;50.856;12.776;2023-03-13T02:46:14;7.30;99.90
7378;DHT22;3730;50.856;12.776;2023-03-13T02:48:42;7.40;99.90
7378;DHT22;3730;50.856;12.776;2023-03-13T02:53:49;8.90;99.90
7378;DHT22;3730;50.856;12.776;2023-03-13T02:56:19;8.30;99.90
7378;DHT22;3730;50.856;12.776;2023-03-13T02:58:45;7.40;99.90
7378;DHT22;3730;50.856;12.776;2023-03-13T03:01:11;8.40;99.90
7378;DHT22;3730;50.856;12.776;2023-03-13T03:03:36;7.50;99.90
7378;DHT22;3730;50.856;12.776;2023-03-13T03:06:04;7.50;99.90
7378;DHT22;3730;50.856;12.776;2023-03-13T03:08:30;7.50;99.90
7378;DHT22;3730;50.856;12.776;2023-03-13T03:10:56;7.50;1.00
7378;DHT22;3730;50.856;12.776;2023-03-13T03:13:22;7.50;99.90
7378;DHT22;3730;50.856;12.776;2023-03-13T03:15:48;7.50;99.90
7378;DHT22;3730;50.856;12.776;2023-03-13T03:18:13;7.50;1.00
7378;DHT22;3730;50.856;12.776;2023-03-13T03:20:39;7.50;99.90
7378;DHT22;3730;50.856;12.776;2023-03-13T03:23:04;8.30;99.90
7378;DHT22;3730;50.856;12.776;2023-03-13T03:25:30;8.50;99.90
7378;DHT22;3730;50.856;12.776;2023-03-13T03:27:56;8.80;99.90
7378;DHT22;3730;50.856;12.776;2023-03-13T03:30:21;9.70;99.90
7378;DHT22;3730;50.856;12.776;2023-03-13T03:32:47;7.60;1.00
7378;DHT22;3730;50.856;12.776;2023-03-13T03:35:12;7.60;99.90
7378;DHT22;3730;50.856;12.776;2023-03-13T03:37:38;7.60;99.90
7378;DHT22;3730;50.856;12.776;2023-03-13T03:40:04;7.60;99.90
7378;DHT22;3730;50.856;12.776;2023-03-13T03:42:31;7.60;99.90
7378;DHT22;3730;50.856;12.776;2023-03-13T03:44:57;7.70;99.90
7378;DHT22;3730;50.856;12.776;2023-03-13T03:47:22;7.80;99.90
7378;DHT22;3730;50.856;12.776;2023-03-13T03:49:48;7.70;99.90
7378;DHT22;3730;50.856;12.776;2023-03-13T03:52:14;7.70;99.90
7378;DHT22;3730;50.856;12.776;2023-03-13T03:54:39;7.70;99.90
7378;DHT22;3730;50.856;12.776;2023-03-13T03:57:05;7.80;99.90
7378;DHT22;3730;50.856;12.776;2023-03-13T03:59:31;7.80;99.90
7378;DHT22;3730;50.856;12.776;2023-03-13T04:01:56;7.70;99.90
7378;DHT22;3730;50.856;12.776;2023-03-13T04:04:22;7.80;99.90
7378;DHT22;3730;50.856;12.776;2023-03-13T04:06:47;7.70;99.90
7378;DHT22;3730;50.856;12.776;2023-03-13T04:09:13;9.40;99.90
7378;DHT22;3730;50.856;12.776;2023-03-13T04:11:39;9.60;99.90
7378;DHT22;3730;50.856;12.776;2023-03-13T04:14:04;8.20;99.90
7378;DHT22;3730;50.856;12.776;2023-03-13T04:16:30;7.80;99.90
7378;DHT22;3730;50.856;12.776;2023-03-13T04:18:55;8.60;99.90
7378;DHT22;3730;50.856;12.776;2023-03-13T04:21:21;7.80;99.90
7378;DHT22;3730;50.856;12.776;2023-03-13T04:23:47;7.80;99.90
7378;DHT22;3730;50.856;12.776;2023-03-13T04:26:12;9.60;99.90
7378;DHT22;3730;50.856;12.776;2023-03-13T04:28:38;9.60;99.90
7378;DHT22;3730;50.856;12.776;2023-03-13T04:31:03;8.50;99.90
7378;DHT22;3730;50.856;12.776;2023-03-13T04:33:29;7.90;99.90
7378;DHT22;3730;50.856;12.776;2023-03-13T04:35:55;9.20;99.90
7378;DHT22;3730;50.856;12.776;2023-03-13T04:38:20;7.90;99.90
7378;DHT22;3730;50.856;12.776;2023-03-13T04:40:46;7.90;99.90
7378;DHT22;3730;50.856;12.776;2023-03-13T04:43:12;8.40;99.90
7378;DHT22;3730;50.856;12.776;2023-03-13T04:45:38;7.90;99.90
7378;DHT22;3730;50.856;12.776;2023-03-13T04:48:04;8.00;99.90
7378;DHT22;3730;50.856;12.776;2023-03-13T04:50:29;8.00;99.90
7378;DHT22;3730;50.856;12.776;2023-03-13T04:52:55;9.70;99.90
7378;DHT22;3730;50.856;12.776;2023-03-13T04:55:21;8.00;99.90
7378;DHT22;3730;50.856;12.776;2023-03-13T04:57:46;8.00;99.90
7378;DHT22;3730;50.856;12.776;2023-03-13T05:00:12;8.10;99.90
7378;DHT22;3730;50.856;12.776;2023-03-13T05:02:38;8.10;99.90
7378;DHT22;3730;50.856;12.776;2023-03-13T05:05:04;8.30;99.90
7378;DHT22;3730;50.856;12.776;2023-03-13T05:07:29;8.10;99.90
7378;DHT22;3730;50.856;12.776;2023-03-13T08:00:55;9.50;99.90
7378;DHT22;3730;50.856;12.776;2023-03-13T08:03:21;9.60;99.90
7378;DHT22;3730;50.856;12.776;2023-03-13T09:21:30;9.60;99.90
7378;DHT22;3730;50.856;12.776;2023-03-13T09:23:57;9.90;99.90
7378;DHT22;3730;50.856;12.776;2023-03-13T09:26:23;9.90;99.90
7378;DHT22;3730;50.856;12.776;2023-03-13T09:28:50;10.30;99.90
7378;DHT22;3730;50.856;12.776;2023-03-13T09:31:18;11.00;99.90
7378;DHT22;3730;50.856;12.776;2023-03-13T09:33:46;9.90;99.90
7378;DHT22;3730;50.856;12.776;2023-03-13T16:59:40;10.10;99.90
7378;DHT22;3730;50.856;12.776;2023-03-13T17:04:38;13.50;99.90
7378;DHT22;3730;50.856;12.776;2023-03-13T17:34:06;13.40;99.90
7378;DHT22;3730;50.856;12.776;2023-03-13T17:36:32;13.20;99.90
7378;DHT22;3730;50.856;12.776;2023-03-13T17:39:00;13.30;99.90
7378;DHT22;3730;50.856;12.776;2023-03-13T17:41:30;13.20;99.90
7378;DHT22;3730;50.856;12.776;2023-03-13T17:43:57;13.20;99.90
7378;DHT22;3730;50.856;12.776;2023-03-13T17:46:43;13.20;99.90
7378;DHT22;3730;50.856;12.776;2023-03-13T19:40:45;13.60;99.90
7378;DHT22;3730;50.856;12.776;2023-03-13T19:43:10;10.00;99.90
7378;DHT22;3730;50.856;12.776;2023-03-13T19:45:36;10.20;99.90
7378;DHT22;3730;50.856;12.776;2023-03-13T19:48:01;10.00;99.90
7378;DHT22;3730;50.856;12.776;2023-03-13T19:50:28;10.00;99.90
7378;DHT22;3730;50.856;12.776;2023-03-13T19:52:55;10.00;99.90
7378;DHT22;3730;50.856;12.776;2023-03-13T19:55:21;10.10;99.90
7378;DHT22;3730;50.856;12.776;2023-03-13T19:57:46;10.00;99.90
7378;DHT22;3730;50.856;12.776;2023-03-13T20:00:24;11.10;99.90
7378;DHT22;3730;50.856;12.776;2023-03-13T20:02:50;10.30;99.90
7378;DHT22;3730;50.856;12.776;2023-03-13T20:05:19;10.10;99.90
7378;DHT22;3730;50.856;12.776;2023-03-13T20:07:44;10.10;99.90
7378;DHT22;3730;50.856;12.776;2023-03-13T20:10:11;10.00;99.90
7378;DHT22;3730;50.856;12.776;2023-03-13T20:12:36;10.00;99.90
7378;DHT22;3730;50.856;12.776;2023-03-13T20:15:02;10.00;99.90
7378;DHT22;3730;50.856;12.776;2023-03-13T20:17:28;10.00;99.90
7378;DHT22;3730;50.856;12.776;2023-03-13T20:19:53;10.70;99.90
7378;DHT22;3730;50.856;12.776;2023-03-13T20:22:19;10.00;99.90
7378;DHT22;3730;50.856;12.776;2023-03-13T20:24:45;9.90;99.90
7378;DHT22;3730;50.856;12.776;2023-03-13T20:27:10;10.00;99.90
7378;DHT22;3730;50.856;12.776;2023-03-13T20:29:36;10.00;99.90
7378;DHT22;3730;50.856;12.776;2023-03-13T20:32:02;10.70;99.90
7378;DHT22;3730;50.856;12.776;2023-03-13T20:34:30;10.00;99.90
7378;DHT22;3730;50.856;12.776;2023-03-13T20:36:56;10.90;99.90
7378;DHT22;3730;50.856;12.776;2023-03-13T20:39:25;10.00;99.90
7378;DHT22;3730;50.856;12.776;2023-03-13T20:41:50;10.90;99.90
7378;DHT22;3730;50.856;12.776;2023-03-13T20:44:16;10.10;99.90
7378;DHT22;3730;50.856;12.776;2023-03-13T20:46:42;10.20;99.90
7378;DHT22;3730;50.856;12.776;2023-03-13T20:49:07;10.20;99.90
7378;DHT22;3730;50.856;12.776;2023-03-13T20:51:33;10.20;99.90
7378;DHT22;3730;50.856;12.776;2023-03-13T20:53:58;10.10;99.90
7378;DHT22;3730;50.856;12.776;2023-03-13T20:56:24;10.70;99.90
7378;DHT22;3730;50.856;12.776;2023-03-13T20:58:50;10.20;99.90
7378;DHT22;3730;50.856;12.776;2023-03-13T21:01:15;10.20;99.90
7378;DHT22;3730;50.856;12.776;2023-03-13T21:03:41;10.20;99.90
7378;DHT22;3730;50.856;12.776;2023-03-13T21:08:34;10.30;99.90
7378;DHT22;3730;50.856;12.776;2023-03-13T21:11:00;10.30;99.90
7378;DHT22;3730;50.856;12.776;2023-03-13T21:13:25;10.30;99.90
7378;DHT22;3730;50.856;12.776;2023-03-13T21:15:58;10.30;99.90
7378;DHT22;3730;50.856;12.776;2023-03-13T21:18:24;10.40;99.90
7378;DHT22;3730;50.856;12.776;2023-03-13T21:20:50;10.40;99.90
7378;DHT22;3730;50.856;12.776;2023-03-13T21:23:15;10.40;99.90
7378;DHT22;3730;50.856;12.776;2023-03-13T21:25:41;10.50;99.90
7378;DHT22;3730;50.856;12.776;2023-03-13T21:28:06;10.40;99.90
7378;DHT22;3730;50.856;12.776;2023-03-13T21:30:32;10.50;99.90
7378;DHT22;3730;50.856;12.776;2023-03-13T21:32:58;10.40;99.90
7378;DHT22;3730;50.856;12.776;2023-03-13T21:35:23;12.10;99.90
7378;DHT22;3730;50.856;12.776;2023-03-13T21:37:49;10.40;99.90
7378;DHT22;3730;50.856;12.776;2023-03-13T21:40:14;10.40;99.90
7378;DHT22;3730;50.856;12.776;2023-03-13T21:42:40;10.40;99.90
7378;DHT22;3730;50.856;12.776;2023-03-13T21:45:06;10.30;99.90
7378;DHT22;3730;50.856;12.776;2023-03-13T21:47:33;10.40;99.90
7378;DHT22;3730;50.856;12.776;2023-03-13T21:50:02;10.40;99.90
7378;DHT22;3730;50.856;12.776;2023-03-13T21:52:28;10.40;99.90
7378;DHT22;3730;50.856;12.776;2023-03-13T21:54:56;10.40;99.90
7378;DHT22;3730;50.856;12.776;2023-03-13T21:57:22;10.40;99.90
7378;DHT22;3730;50.856;12.776;2023-03-13T21:59:48;10.90;99.90
7378;DHT22;3730;50.856;12.776;2023-03-13T22:02:13;10.40;99.90
7378;DHT22;3730;50.856;12.776;2023-03-13T22:04:39;11.10;99.90
7378;DHT22;3730;50.856;12.776;2023-03-13T22:07:05;10.50;99.90
7378;DHT22;3730;50.856;12.776;2023-03-13T22:09:30;10.40;99.90
7378;DHT22;3730;50.856;12.776;2023-03-13T22:11:57;10.40;99.90
7378;DHT22;3730;50.856;12.776;2023-03-13T22:14:23;10.40;99.90
7378;DHT22;3730;50.856;12.776;2023-03-13T22:16:50;10.40;99.90
7378;DHT22;3730;50.856;12.776;2023-03-13T22:19:15;10.40;99.90
7378;DHT22;3730;50.856;12.776;2023-03-13T22:21:44;10.40;99.90
7378;DHT22;3730;50.856;12.776;2023-03-13T22:24:10;11.30;99.90
7378;DHT22;3730;50.856;12.776;2023-03-13T22:26:37;10.30;99.90
7378;DHT22;3730;50.856;12.776;2023-03-13T22:29:03;10.90;99.90
7378;DHT22;3730;50.856;12.776;2023-03-13T22:31:29;10.30;99.90
7378;DHT22;3730;50.856;12.776;2023-03-13T22:33:55;10.30;99.90
7378;DHT22;3730;50.856;12.776;2023-03-13T22:36:20;10.20;99.90
7378;DHT22;3730;50.856;12.776;2023-03-13T22:38:46;10.20;99.90
7378;DHT22;3730;50.856;12.776;2023-03-13T22:41:13;10.70;99.90
7378;DHT22;3730;50.856;12.776;2023-03-13T22:43:39;10.20;99.90
7378;DHT22;3730;50.856;12.776;2023-03-13T22:46:05;10.30;99.90
7378;DHT22;3730;50.856;12.776;2023-03-13T22:48:31;10.30;99.90
7378;DHT22;3730;50.856;12.776;2023-03-13T22:51:24;10.80;99.90
7378;DHT22;3730;50.856;12.776;2023-03-13T22:53:49;10.30;99.90
7378;DHT22;3730;50.856;12.776;2023-03-13T22:56:15;10.60;99.90
7378;DHT22;3730;50.856;12.776;2023-03-13T22:58:41;10.20;99.90
7378;DHT22;3730;50.856;12.776;2023-03-13T23:01:17;10.20;99.90
7378;DHT22;3730;50.856;12.776;2023-03-13T23:03:43;10.20;99.90
7378;DHT22;3730;50.856;12.776;2023-03-13T23:06:16;10.30;99.90
7378;DHT22;3730;50.856;12.776;2023-03-13T23:08:41;10.20;99.90
7378;DHT22;3730;50.856;12.776;2023-03-13T23:11:07;10.20;99.90
7378;DHT22;3730;50.856;12.776;2023-03-13T23:13:33;10.30;99.90
7378;DHT22;3730;50.856;12.776;2023-03-13T23:15:58;11.40;99.90
7378;DHT22;3730;50.856;12.776;2023-03-13T23:18:25;10.40;99.90
7378;DHT22;3730;50.856;12.776;2023-03-13T23:20:51;10.20;99.90
7378;DHT22;3730;50.856;12.776;2023-03-13T23:23:17;10.20;99.90
7378;DHT22;3730;50.856;12.776;2023-03-13T23:25:43;10.20;99.90
7378;DHT22;3730;50.856;12.776;2023-03-13T23:28:09;10.20;99.90
7378;DHT22;3730;50.856;12.776;2023-03-13T23:30:35;10.20;99.90
7378;DHT22;3730;50.856;12.776;2023-03-13T23:33:01;10.30;99.90
7378;DHT22;3730;50.856;12.776;2023-03-13T23:35:27;10.30;99.90
7378;DHT22;3730;50.856;12.776;2023-03-13T23:37:52;10.20;99.90
7378;DHT22;3730;50.856;12.776;2023-03-13T23:40:22;10.90;99.90
7378;DHT22;3730;50.856;12.776;2023-03-13T23:42:48;10.20;99.90
7378;DHT22;3730;50.856;12.776;2023-03-13T23:45:15;10.70;99.90
7378;DHT22;3730;50.856;12.776;2023-03-13T23:47:42;10.20;99.90
7378;DHT22;3730;50.856;12.776;2023-03-13T23:50:10;11.00;99.90
7378;DHT22;3730;50.856;12.776;2023-03-13T23:52:36;10.10;99.90
7378;DHT22;3730;50.856;12.776;2023-03-13T23:55:02;10.10;99.90
7378;DHT22;3730;50.856;12.776;2023-03-13T23:57:28;10.20;99.90
7378;DHT22;3730;50.856;12.776;2023-03-13T23:59:54;10.20;99.90
